createdAt,value
2022-09-12T00:02:09.156Z,1020.9681114655178
2022-09-12T00:11:38.700Z,1020.9748335057452
2022-09-12T00:18:08.972Z,1020.9345837495076
2022-09-12T00:24:47.478Z,1020.9040003711121
2022-09-12T00:31:16.167Z,1020.8072606404843
2022-09-12T00:37:46.068Z,1020.7178369120084
2022-09-12T00:54:54.035Z,1020.6200103773576
2022-09-12T01:07:16.132Z,1020.5441857442551
2022-09-12T01:13:44.886Z,1020.5284268437592
2022-09-12T01:20:12.967Z,1020.5147125001561
2022-09-12T01:26:50.646Z,1020.5163402228268
2022-09-12T01:35:11.056Z,1020.4484468639362
2022-09-12T01:41:38.727Z,1020.4242059942791
2022-09-12T01:53:04.805Z,1020.3802616575376
2022-09-12T02:04:45.813Z,1020.3266344449785
2022-09-12T02:16:06.110Z,1020.1711268249096
2022-09-12T02:22:34.679Z,1020.0631645395819
2022-09-12T02:38:35.820Z,1019.9892536204491
2022-09-12T02:45:03.983Z,1020.0051553360281
2022-09-12T02:51:31.853Z,1019.9601076138673
2022-09-12T02:58:00.596Z,1019.8892482266018
2022-09-12T03:05:59.520Z,1019.8564015313092
2022-09-12T03:12:27.027Z,1019.8435613223457
2022-09-12T03:18:54.983Z,1019.8196798684204
2022-09-12T03:25:23.354Z,1019.8073603099973
2022-09-12T03:31:53.386Z,1019.8057173066753
2022-09-12T03:38:23.098Z,1019.8421344079026
2022-09-12T03:44:52.598Z,1019.8583891642667
2022-09-12T03:51:23.838Z,1019.8273663103623
2022-09-12T03:59:28.164Z,1019.801600336797
2022-09-12T04:05:58.105Z,1019.7567758623002
2022-09-12T04:22:47.592Z,1019.7484959165652
2022-09-12T04:30:28.936Z,1019.7539209631561
2022-09-12T04:36:59.398Z,1019.7391204198602
2022-09-12T04:43:28.673Z,1019.7379446917624
2022-09-12T04:49:58.794Z,1019.7804007524741
2022-09-12T04:56:25.794Z,1019.7779483603537
2022-09-12T05:02:54.755Z,1019.7903474085019
2022-09-12T05:09:24.134Z,1019.7982994918857
2022-09-12T05:21:15.374Z,1019.8546690143992
2022-09-12T05:30:51.004Z,1019.8582616009604
2022-09-12T05:37:20.213Z,1019.8426417545489
2022-09-12T05:48:20.385Z,1019.7252447876493
2022-09-12T05:54:49.004Z,1019.6756739101322
2022-09-12T06:01:16.778Z,1019.735124582433
2022-09-12T06:16:29.302Z,1019.6862643118712
2022-09-12T06:31:07.414Z,1019.6293722379746
2022-09-12T06:43:51.013Z,1019.5945385963773
2022-09-12T06:50:18.254Z,1019.5780285286153
2022-09-12T06:56:45.565Z,1019.5727843718333
2022-09-12T07:03:13.087Z,1019.5429426795899
2022-09-12T07:12:20.354Z,1019.6108397292577
2022-09-12T07:24:51.998Z,1019.6558821035345
2022-09-12T07:31:19.490Z,1019.6398213118736
2022-09-12T07:37:46.483Z,1019.5658043986427
2022-09-12T07:44:13.295Z,1019.5225091052366
2022-09-12T07:50:44.952Z,1019.4949371287044
2022-09-12T07:57:12.681Z,1019.4945316600289
2022-09-12T08:03:39.489Z,1019.5718959365365
2022-09-12T08:10:06.854Z,1019.595520317366
2022-09-12T08:16:33.706Z,1019.6019145789686
2022-09-12T08:23:08.576Z,1019.609635751372
2022-09-12T08:35:17.078Z,1019.6325829355488
2022-09-12T08:41:44.225Z,1019.5568721313466
2022-09-12T08:50:10.806Z,1019.5127908313827
2022-09-12T09:01:14.226Z,1019.4597939720204
2022-09-12T09:07:44.280Z,1019.3966292075215
2022-09-12T09:15:34.033Z,1019.3153018582248
2022-09-12T09:24:16.481Z,1019.281033911636
2022-09-12T09:45:47.979Z,1019.202856507908
2022-09-12T09:52:15.713Z,1019.217571284137
2022-09-12T10:08:30.664Z,1019.1736024312315
2022-09-12T10:14:57.459Z,1019.1220636614879
2022-09-12T10:21:24.876Z,1019.0832150075978
2022-09-12T10:28:01.248Z,1019.0258775583087
2022-09-12T10:34:57.277Z,1018.9319635127305
2022-09-12T10:42:11.510Z,1018.8634938375416
2022-09-12T10:48:38.711Z,1018.8326820168021
2022-09-12T10:55:06.423Z,1018.7157321936689
2022-09-12T11:01:34.019Z,1018.6338198723528
2022-09-12T11:08:01.577Z,1018.5763715169152
2022-09-12T11:14:48.438Z,1018.5566665645182
2022-09-12T11:21:16.644Z,1018.5072738801598
2022-09-12T11:28:31.292Z,1018.4269544808599
2022-09-12T11:41:14.601Z,1018.3306797894807
2022-09-12T11:50:36.951Z,1018.2273250532477
2022-09-12T11:58:05.250Z,1018.2449441132892
2022-09-12T12:04:59.149Z,1018.1450022757958
2022-09-12T12:11:22.387Z,1018.0933256058652
2022-09-12T12:17:46.017Z,1018.0533905658126
2022-09-12T12:24:13.295Z,1018.0147076250549
2022-09-12T12:30:37.212Z,1017.9945370711431
2022-09-12T12:52:14.622Z,1017.706576990542
2022-09-12T12:58:38.298Z,1017.6890355981413
2022-09-12T13:05:01.368Z,1017.5666073293943
2022-09-12T13:11:24.310Z,1017.4103346613018
2022-09-12T13:17:53.252Z,1017.2720974911925
2022-09-12T13:24:15.955Z,1017.2687246456653
2022-09-12T13:36:00.736Z,1017.1627719289642
2022-09-12T13:44:46.481Z,1017.0663183855823
2022-09-12T13:51:10.137Z,1017.0258731996105
2022-09-12T13:57:34.887Z,1016.9118768076315
2022-09-12T14:04:03.431Z,1016.886019297174
2022-09-12T14:10:28.342Z,1016.8437158832884
2022-09-12T14:18:12.653Z,1016.7322191861764
2022-09-12T14:24:36.387Z,1016.5977655647903
2022-09-12T14:33:32.245Z,1016.5376973340016
2022-09-12T14:47:37.810Z,1016.4450233361349
2022-09-12T14:54:00.890Z,1016.3752043335996
2022-09-12T15:00:24.952Z,1016.2942576595161
2022-09-12T15:08:15.417Z,1016.1743992961249
2022-09-12T15:14:39.218Z,1016.1121705328671
2022-09-12T15:21:03.133Z,1016.0781928085479
2022-09-12T15:27:25.833Z,1016.0833063915215
2022-09-12T15:33:49.177Z,1016.0501535372631
2022-09-12T15:40:12.674Z,1016.0084155315261
2022-09-12T15:46:37.336Z,1015.9976397233951
2022-09-12T15:53:00.885Z,1015.9890996966524
2022-09-12T15:59:23.866Z,1015.9062906587521
2022-09-12T16:09:55.934Z,1015.9134863833801
2022-09-12T16:16:18.647Z,1015.8541837173171
2022-09-12T16:22:42.758Z,1015.7998341429214
2022-09-12T16:29:06.286Z,1015.7508752661333
2022-09-12T16:35:30.059Z,1015.6416569660516
2022-09-12T16:41:54.037Z,1015.4677616125738
2022-09-12T16:50:18.347Z,1015.2707962313872
2022-09-12T16:56:42.442Z,1015.207734561757
2022-09-12T17:03:07.530Z,1015.1700844214412
2022-09-12T17:09:32.189Z,1015.19288951443
2022-09-12T17:15:56.717Z,1015.1613787763048
2022-09-12T17:26:24.396Z,1015.0596796579018
2022-09-12T17:32:50.113Z,1014.9845713614128
2022-09-12T17:39:14.290Z,1014.9028609090368
2022-09-12T17:46:30.261Z,1014.8666692485551
2022-09-12T17:52:58.798Z,1014.8761792744821
2022-09-12T17:59:32.532Z,1014.8387755250878
2022-09-12T18:12:16.348Z,1014.7694572997591
2022-09-12T18:18:57.590Z,1014.7648982372344
2022-09-12T18:25:29.131Z,1014.7174475566728
2022-09-12T18:32:00.998Z,1014.6600704248795
2022-09-12T18:42:42.247Z,1014.608010626268
2022-09-12T18:49:12.517Z,1014.5456475452391
2022-09-12T18:55:57.562Z,1014.4978054671993
2022-09-12T19:05:54.428Z,1014.4398504769699
2022-09-12T19:12:26.685Z,1014.3833008881658
2022-09-12T19:25:15.737Z,1014.4532358862821
2022-09-12T19:31:48.434Z,1014.4600419175148
2022-09-12T19:39:57.433Z,1014.3843900252665
2022-09-12T19:46:39.711Z,1014.3789302576653
2022-09-12T19:53:22.891Z,1014.326963245556
2022-09-12T20:05:00.432Z,1014.1658258434283
2022-09-12T20:11:35.300Z,1014.0311009814583
2022-09-12T20:18:08.695Z,1013.7749085100107
2022-09-12T20:24:35.664Z,1013.6578110912164
2022-09-12T20:31:04.482Z,1013.5742895160124
2022-09-12T20:40:04.307Z,1013.6207445759749
2022-09-12T20:46:34.480Z,1013.5944359815265
2022-09-12T20:53:04.359Z,1013.5977258046878
2022-09-12T20:59:33.343Z,1013.4927768027309
2022-09-12T21:06:01.798Z,1013.3246906722572
2022-09-12T21:12:29.982Z,1013.2468272181601
2022-09-12T21:18:56.734Z,1013.1456694307092
2022-09-12T21:25:24.072Z,1013.0821297239952
2022-09-12T21:31:50.710Z,1013.0942664102147
2022-09-12T21:38:17.307Z,1013.045715461637
2022-09-12T21:44:43.327Z,1012.9660791727998
2022-09-12T21:51:10.613Z,1012.8706639933972
2022-09-12T21:57:37.224Z,1012.8850331759465
2022-09-12T22:08:53.543Z,1012.8572863782035
2022-09-12T22:24:51.344Z,1012.5719954657063
2022-09-12T22:31:19.716Z,1012.5507915486588
2022-09-12T22:37:49.328Z,1012.5820780257369
2022-09-12T22:44:16.678Z,1012.5029353772046
2022-09-12T22:50:43.206Z,1012.3293099792705
2022-09-12T23:01:22.952Z,1012.2445640073255
2022-09-12T23:07:49.435Z,1012.1931881883628
2022-09-12T23:14:16.517Z,1012.1918570689951
2022-09-12T23:20:43.294Z,1012.1373402072227
2022-09-12T23:27:14.912Z,1012.1432410246026
2022-09-12T23:33:41.103Z,1012.1538961955339
2022-09-12T23:40:08.319Z,1012.1251240569727
2022-09-12T23:47:07.148Z,1012.1301206694465
2022-09-12T23:53:34.753Z,1012.108581605258
